Goias, Brazil
Current Conditions -  °F | °C
As of 6:00 PM on Friday 19 Dec 2014 (Local Time) from SBGO Reporting Station
Few Clouds Few Clouds  
Wind Chill: 81°   Ceiling: Unl
Heat Index: 82°   Visibility: 6mi
Dew Point: 63°   Wind: 6mph
Humidity: 54%   Direction: 340°NNW
Pressure: 29.83"   Gusts: NA
Location:  15.93°S, 50.14°W
Report Text: SBGO 192000Z 34005KT 9999 FEW035 27/17 Q1010
Loading
Personal Weather Stations






























Interactive Weather Map New forecast layout! Learn more

10-Day Weather Forecast

Advertisements
Track Severe Weather on mobile